Time;durP1;ratioP1;P1;durP2;ratioP2;P2;SDS_P1;SDS_P2;PMS_P1;PMS_P2;Temp;Humidity;BMP_temperature;BMP_pressure;BME280_temperature;BME280_humidity;BME280_pressure;Samples;Min_cycle;Max_cycle;Signal;HPM_P1;HPM_P2
2023/07/23 00:00:42;;;;;;;3.92;3.50;;;16.20;86.30;;;;;;5066316;28;20198;-89
2023/07/23 00:03:09;;;;;;;4.55;3.70;;;16.20;86.70;;;;;;5064029;28;20294;-88
2023/07/23 00:05:36;;;;;;;5.38;3.50;;;16.20;87.40;;;;;;5065703;28;20207;-89
2023/07/23 00:08:03;;;;;;;4.30;3.70;;;16.20;88.30;;;;;;5065438;28;20209;-89
2023/07/23 00:10:31;;;;;;;4.32;3.85;;;16.10;88.30;;;;;;5061466;28;20223;-89
2023/07/23 00:12:58;;;;;;;5.80;3.50;;;16.10;88.40;;;;;;5064612;28;20201;-87
2023/07/23 00:15:25;;;;;;;5.07;3.22;;;16.10;88.70;;;;;;5058957;28;20194;-89
2023/07/23 00:17:52;;;;;;;6.28;3.35;;;16.00;88.50;;;;;;5056991;28;20213;-88
2023/07/23 00:20:19;;;;;;;7.80;4.38;;;16.00;88.60;;;;;;5040687;28;20197;-88
2023/07/23 00:22:46;;;;;;;3.70;3.30;;;16.00;89.20;;;;;;5049242;28;20228;-88
2023/07/23 00:25:13;;;;;;;4.72;3.72;;;16.00;90.00;;;;;;5064769;28;20205;-89
2023/07/23 00:27:49;;;;;;;6.45;4.13;;;16.00;90.30;;;;;;5049021;28;20204;-87
2023/07/23 00:30:16;;;;;;;5.63;3.28;;;16.00;90.00;;;;;;5067397;28;20196;-88
2023/07/23 00:32:44;;;;;;;3.80;3.47;;;15.90;89.70;;;;;;5065918;28;20231;-88
2023/07/23 00:35:11;;;;;;;5.22;3.65;;;15.90;90.20;;;;;;5044796;28;20204;-88
2023/07/23 00:37:38;;;;;;;4.95;4.28;;;15.90;90.40;;;;;;5041737;28;20205;-89
2023/07/23 00:40:06;;;;;;;3.47;3.17;;;15.90;90.40;;;;;;5061042;28;20201;-87
2023/07/23 00:42:33;;;;;;;5.18;3.53;;;15.90;90.40;;;;;;5063857;28;20228;-89
2023/07/23 00:45:02;;;;;;;3.80;3.45;;;15.80;90.30;;;;;;5064524;28;20225;-89
2023/07/23 00:47:29;;;;;;;4.45;3.28;;;15.80;90.40;;;;;;5063637;28;20205;-88
2023/07/23 00:49:56;;;;;;;4.03;3.30;;;15.80;90.70;;;;;;5065296;28;20193;-87
2023/07/23 00:52:24;;;;;;;5.22;4.43;;;15.80;90.80;;;;;;5046115;28;20205;-87
2023/07/23 00:54:51;;;;;;;4.28;3.22;;;15.80;90.80;;;;;;5064351;28;20197;-87
2023/07/23 00:57:19;;;;;;;4.20;3.80;;;15.80;90.70;;;;;;5067042;28;20212;-88
2023/07/23 00:59:46;;;;;;;3.53;3.22;;;15.70;90.90;;;;;;5060429;28;20224;-87
2023/07/23 01:02:14;;;;;;;5.20;3.80;;;15.60;91.00;;;;;;5059197;28;20221;-90
2023/07/23 01:04:41;;;;;;;5.68;3.58;;;15.60;91.60;;;;;;5066120;28;20254;-88
2023/07/23 01:07:09;;;;;;;5.75;3.30;;;15.60;91.60;;;;;;5062005;28;20197;-88
2023/07/23 01:09:37;;;;;;;4.50;3.42;;;15.60;91.60;;;;;;5067011;28;20193;-89
2023/07/23 01:12:05;;;;;;;5.07;3.50;;;15.60;91.60;;;;;;5048475;28;20205;-87
2023/07/23 01:14:33;;;;;;;3.40;3.10;;;15.50;91.60;;;;;;5026025;28;20205;-89
2023/07/23 01:17:01;;;;;;;7.20;3.40;;;15.50;91.60;;;;;;5062981;28;20194;-87
2023/07/23 01:19:29;;;;;;;4.90;3.50;;;15.50;91.60;;;;;;5048551;28;20307;-89
2023/07/23 01:22:00;;;;;;;4.03;3.33;;;15.40;91.60;;;;;;5063758;28;20201;-89
2023/07/23 01:24:26;;;;;;;3.97;3.55;;;15.40;91.60;;;;;;5049023;28;20692;-88
2023/07/23 01:26:53;;;;;;;4.35;3.70;;;15.40;91.90;;;;;;5062584;28;20208;-89
2023/07/23 01:29:20;;;;;;;4.00;3.30;;;15.40;92.00;;;;;;5070614;28;20200;-88
2023/07/23 01:31:47;;;;;;;4.63;3.50;;;15.30;92.00;;;;;;5045860;28;21420;-87
2023/07/23 01:34:14;;;;;;;5.25;3.55;;;15.30;92.30;;;;;;5048384;28;20642;-89
2023/07/23 01:36:41;;;;;;;5.43;3.42;;;15.30;92.50;;;;;;5066609;28;20206;-88
2023/07/23 01:39:10;;;;;;;6.88;3.70;;;15.30;92.40;;;;;;5051866;28;20197;-89
2023/07/23 01:41:37;;;;;;;3.90;3.50;;;15.20;92.60;;;;;;5051107;28;20701;-88
2023/07/23 01:44:05;;;;;;;4.10;3.63;;;15.30;92.50;;;;;;5063127;28;20550;-88
2023/07/23 01:46:32;;;;;;;4.50;3.40;;;15.30;92.50;;;;;;5069236;28;20664;-89
2023/07/23 01:48:59;;;;;;;4.25;3.72;;;15.20;92.50;;;;;;5068339;28;20205;-87
2023/07/23 01:51:26;;;;;;;4.28;3.72;;;15.20;92.70;;;;;;5033105;28;20212;-87
2023/07/23 01:53:53;;;;;;;5.90;3.80;;;15.20;92.70;;;;;;5062773;28;20209;-89
2023/07/23 01:56:21;;;;;;;5.47;3.38;;;15.20;93.00;;;;;;5063938;28;20205;-87
2023/07/23 01:58:48;;;;;;;4.90;4.20;;;15.20;92.90;;;;;;5066089;28;20197;-88
2023/07/23 02:01:15;;;;;;;4.72;3.70;;;15.20;93.10;;;;;;5067483;28;20231;-88
2023/07/23 02:03:42;;;;;;;6.65;4.25;;;15.10;93.10;;;;;;5070567;28;20221;-88
2023/07/23 02:06:09;;;;;;;4.38;3.40;;;15.10;93.30;;;;;;5032983;28;20319;-87
2023/07/23 02:08:36;;;;;;;5.90;3.90;;;15.10;93.40;;;;;;5064692;28;20593;-86
2023/07/23 02:11:03;;;;;;;3.95;3.42;;;15.10;93.20;;;;;;5062333;28;20665;-88
2023/07/23 02:13:32;;;;;;;5.07;3.33;;;15.10;93.30;;;;;;5072068;28;20204;-89
2023/07/23 02:15:58;;;;;;;5.70;3.58;;;15.00;93.30;;;;;;5050385;28;20194;-88
2023/07/23 02:18:25;;;;;;;4.80;3.45;;;15.00;93.40;;;;;;5066270;28;20221;-88
2023/07/23 02:20:53;;;;;;;4.57;3.67;;;14.90;93.60;;;;;;5066535;28;20668;-87
2023/07/23 02:23:20;;;;;;;4.80;3.50;;;14.90;93.80;;;;;;5067006;28;20217;-88
2023/07/23 02:25:49;;;;;;;4.22;3.50;;;14.90;94.00;;;;;;5068978;28;20201;-88
2023/07/23 02:28:17;;;;;;;3.78;3.30;;;14.90;93.80;;;;;;5067824;28;20821;-87
2023/07/23 02:30:45;;;;;;;3.92;3.50;;;14.90;93.90;;;;;;5068027;28;20228;-88
2023/07/23 02:33:12;;;;;;;5.10;3.67;;;14.90;94.00;;;;;;5045418;28;20558;-88
2023/07/23 02:35:39;;;;;;;4.22;3.25;;;15.00;93.90;;;;;;5047011;28;20193;-88
2023/07/23 02:38:06;;;;;;;6.35;3.33;;;15.00;93.70;;;;;;5073305;28;20556;-89
2023/07/23 02:40:34;;;;;;;3.85;3.25;;;15.00;93.60;;;;;;5067927;28;20209;-88
2023/07/23 02:43:02;;;;;;;5.78;3.53;;;14.90;93.70;;;;;;5028283;28;20247;-87
2023/07/23 02:45:29;;;;;;;3.75;3.30;;;14.90;93.70;;;;;;5043230;28;20216;-88
2023/07/23 02:47:58;;;;;;;5.72;3.30;;;14.80;93.90;;;;;;5059200;28;20198;-89
2023/07/23 02:50:25;;;;;;;5.07;3.70;;;14.80;93.90;;;;;;5064958;28;20197;-88
2023/07/23 02:52:52;;;;;;;5.55;3.97;;;14.80;94.00;;;;;;5068738;28;20670;-88
2023/07/23 02:55:19;;;;;;;3.50;3.20;;;14.80;94.50;;;;;;5048278;28;20750;-88
2023/07/23 02:57:46;;;;;;;3.97;3.50;;;14.90;94.00;;;;;;5069506;28;20688;-87
2023/07/23 03:00:13;;;;;;;4.00;3.60;;;15.00;94.00;;;;;;5065727;28;20650;-89
2023/07/23 03:02:41;;;;;;;5.32;3.47;;;15.00;94.00;;;;;;5067072;28;20197;-87
2023/07/23 03:05:11;;;;;;;4.50;3.53;;;15.00;93.80;;;;;;5064955;28;20197;-89
2023/07/23 03:07:39;;;;;;;4.32;3.42;;;15.00;93.90;;;;;;5062511;28;20197;-88
2023/07/23 03:10:07;;;;;;;4.25;3.70;;;15.00;93.30;;;;;;5069963;28;20675;-89
2023/07/23 03:12:34;;;;;;;4.30;3.90;;;15.00;93.20;;;;;;5041736;28;20209;-87
2023/07/23 03:15:01;;;;;;;5.15;3.70;;;15.10;93.20;;;;;;5041265;28;20209;-87
2023/07/23 03:17:28;;;;;;;4.18;3.63;;;15.10;92.90;;;;;;5068419;28;20209;-88
2023/07/23 03:19:55;;;;;;;4.25;3.67;;;15.00;93.10;;;;;;5065286;28;20198;-87
2023/07/23 03:22:25;;;;;;;4.68;3.78;;;14.90;93.40;;;;;;5051368;28;20192;-88
2023/07/23 03:24:52;;;;;;;4.00;3.25;;;14.80;93.80;;;;;;5052123;28;20278;-89
2023/07/23 03:27:19;;;;;;;5.63;3.65;;;14.70;94.10;;;;;;5059742;28;20562;-86
2023/07/23 03:29:46;;;;;;;4.45;3.67;;;14.70;94.10;;;;;;5069808;28;20255;-88
2023/07/23 03:32:13;;;;;;;4.75;3.60;;;14.60;94.10;;;;;;5064003;28;20252;-87
2023/07/23 03:34:40;;;;;;;5.28;3.50;;;14.50;94.70;;;;;;5044669;28;20251;-87
2023/07/23 03:37:07;;;;;;;6.53;3.70;;;14.50;94.90;;;;;;5065111;28;20193;-88
2023/07/23 03:39:35;;;;;;;4.55;3.50;;;14.50;94.90;;;;;;5066733;28;20205;-88
2023/07/23 03:42:02;;;;;;;6.95;3.42;;;14.60;94.90;;;;;;5064760;28;20205;-89
2023/07/23 03:44:29;;;;;;;5.07;3.40;;;14.70;94.60;;;;;;5037218;28;20221;-89
2023/07/23 03:47:04;;;;;;;4.47;3.45;;;14.70;94.50;;;;;;5053213;28;20602;-87
2023/07/23 03:49:30;;;;;;;4.00;3.30;;;14.80;94.20;;;;;;5037332;28;20641;-87
2023/07/23 03:51:58;;;;;;;8.18;3.75;;;14.70;94.40;;;;;;5067607;28;20675;-87
2023/07/23 03:54:25;;;;;;;5.05;3.58;;;14.70;94.60;;;;;;5066714;28;20209;-88
2023/07/23 03:56:53;;;;;;;4.05;3.50;;;14.70;94.80;;;;;;5066526;28;20225;-88
2023/07/23 03:59:20;;;;;;;6.13;3.90;;;14.70;94.60;;;;;;5069124;28;20204;-89
2023/07/23 04:01:47;;;;;;;4.60;3.60;;;14.70;94.40;;;;;;5036162;28;20197;-88
2023/07/23 04:04:14;;;;;;;4.65;3.47;;;14.60;94.30;;;;;;5061884;28;20225;-88
2023/07/23 04:06:41;;;;;;;4.70;3.80;;;14.60;94.70;;;;;;5050402;28;20220;-88
2023/07/23 04:09:09;;;;;;;6.00;3.17;;;14.50;94.80;;;;;;5065363;28;20198;-87
2023/07/23 04:11:36;;;;;;;4.60;3.58;;;14.50;95.10;;;;;;5035248;28;20197;-88
2023/07/23 04:14:05;;;;;;;4.57;3.72;;;14.50;95.30;;;;;;5046292;28;20197;-87
2023/07/23 04:16:32;;;;;;;5.93;3.55;;;14.50;95.40;;;;;;5061403;28;20202;-86
2023/07/23 04:18:59;;;;;;;4.93;3.47;;;14.50;95.50;;;;;;5067856;28;20209;-87
2023/07/23 04:21:26;;;;;;;4.43;3.60;;;14.50;95.50;;;;;;5061444;28;20259;-88
2023/07/23 04:23:55;;;;;;;3.80;3.33;;;14.60;95.40;;;;;;5059491;28;20220;-88
2023/07/23 04:26:22;;;;;;;5.72;3.97;;;14.60;95.30;;;;;;5061526;28;20267;-87
2023/07/23 04:28:50;;;;;;;4.50;3.67;;;14.60;95.10;;;;;;5047098;28;20324;-87
2023/07/23 04:31:18;;;;;;;3.92;3.53;;;14.70;95.20;;;;;;5067032;28;20197;-89
2023/07/23 04:33:46;;;;;;;5.10;3.20;;;14.80;95.00;;;;;;5063379;28;20213;-89
2023/07/23 04:36:14;;;;;;;3.75;3.33;;;14.80;94.80;;;;;;5063287;28;20204;-87
2023/07/23 04:38:42;;;;;;;3.90;3.50;;;14.80;94.60;;;;;;5063456;28;20201;-89
2023/07/23 04:41:09;;;;;;;4.10;3.38;;;15.00;94.50;;;;;;5063974;28;20650;-88
2023/07/23 04:43:37;;;;;;;3.58;3.28;;;15.10;94.30;;;;;;5033556;28;20225;-89
2023/07/23 04:46:05;;;;;;;6.10;3.53;;;15.20;94.30;;;;;;5062809;28;20610;-88
2023/07/23 04:48:34;;;;;;;4.60;3.33;;;15.40;93.80;;;;;;5058177;28;20193;-88
2023/07/23 04:51:04;;;;;;;5.70;3.67;;;15.40;93.70;;;;;;5064577;28;20205;-88
2023/07/23 04:53:31;;;;;;;4.38;3.80;;;15.50;93.70;;;;;;5046954;28;20194;-87
2023/07/23 04:56:00;;;;;;;3.88;3.10;;;15.60;93.40;;;;;;5049673;28;20200;-87
2023/07/23 04:58:27;;;;;;;4.70;3.67;;;15.70;93.10;;;;;;5066842;28;20646;-87
2023/07/23 05:00:54;;;;;;;6.20;3.72;;;15.70;93.00;;;;;;5054027;28;20189;-87
2023/07/23 05:03:22;;;;;;;4.22;3.42;;;15.80;92.70;;;;;;5050267;28;20198;-87
2023/07/23 05:05:51;;;;;;;4.45;3.08;;;15.90;92.30;;;;;;5066538;28;20292;-89
2023/07/23 05:08:19;;;;;;;5.53;3.28;;;16.00;92.10;;;;;;5074928;28;20204;-89
2023/07/23 05:10:45;;;;;;;4.20;3.67;;;16.10;91.70;;;;;;5071966;28;20197;-88
2023/07/23 05:13:13;;;;;;;4.10;3.28;;;16.20;91.20;;;;;;5074898;28;20204;-87
2023/07/23 05:15:40;;;;;;;3.80;3.30;;;16.30;91.10;;;;;;5062797;28;20201;-88
2023/07/23 05:18:08;;;;;;;6.22;3.30;;;16.40;90.80;;;;;;5053733;28;20227;-88
2023/07/23 05:20:35;;;;;;;5.63;3.75;;;16.60;90.50;;;;;;5070105;28;20204;-88
2023/07/23 05:23:03;;;;;;;3.67;3.10;;;16.70;90.00;;;;;;5071705;28;20194;-88
2023/07/23 05:25:30;;;;;;;5.78;3.40;;;16.80;89.90;;;;;;5067006;28;20236;-90
2023/07/23 05:27:57;;;;;;;4.85;2.97;;;16.90;89.00;;;;;;5046572;28;20194;-88
2023/07/23 05:30:24;;;;;;;4.10;3.20;;;17.00;87.00;;;;;;5074435;28;20200;-87
2023/07/23 05:32:51;;;;;;;3.83;3.45;;;17.20;86.20;;;;;;5053034;28;20251;-88
2023/07/23 05:35:18;;;;;;;5.93;3.40;;;17.60;84.30;;;;;;5067245;28;20661;-88
2023/07/23 05:37:45;;;;;;;3.63;3.22;;;18.00;80.30;;;;;;5071595;28;20586;-89
2023/07/23 05:40:14;;;;;;;5.72;3.40;;;18.30;77.60;;;;;;5065128;28;20206;-90
2023/07/23 05:42:41;;;;;;;3.53;3.22;;;18.40;77.10;;;;;;5062818;28;20190;-88
2023/07/23 05:45:09;;;;;;;4.35;3.35;;;18.40;75.80;;;;;;5070531;28;20217;-89
2023/07/23 05:47:36;;;;;;;4.03;3.47;;;18.50;75.60;;;;;;5047205;28;20241;-89
2023/07/23 05:50:04;;;;;;;4.03;3.03;;;18.60;76.00;;;;;;5065701;28;20205;-89
2023/07/23 05:52:30;;;;;;;4.85;3.13;;;18.70;72.60;;;;;;5071366;28;20209;-88
2023/07/23 05:54:57;;;;;;;3.90;3.30;;;18.70;72.30;;;;;;5071567;28;20212;-89
2023/07/23 05:57:26;;;;;;;5.15;3.35;;;18.90;70.70;;;;;;5071053;28;20205;-87
2023/07/23 05:59:53;;;;;;;4.50;3.30;;;19.40;62.50;;;;;;5072274;28;20201;-89
2023/07/23 06:02:20;;;;;;;6.35;3.20;;;19.80;57.60;;;;;;5068489;28;20199;-88
2023/07/23 06:04:47;;;;;;;4.90;3.15;;;19.80;55.80;;;;;;5069343;28;20224;-88
2023/07/23 06:07:14;;;;;;;6.05;3.22;;;19.80;55.80;;;;;;5072810;28;20201;-89
2023/07/23 06:09:40;;;;;;;3.60;3.10;;;19.70;55.60;;;;;;5058228;28;20662;-86
2023/07/23 06:12:08;;;;;;;4.15;3.70;;;19.70;55.70;;;;;;5063854;28;20561;-88
2023/07/23 06:14:36;;;;;;;3.40;2.97;;;19.70;57.40;;;;;;5072118;28;20201;-88
2023/07/23 06:17:03;;;;;;;3.55;3.25;;;19.60;56.80;;;;;;5063098;28;20197;-89
2023/07/23 06:19:30;;;;;;;6.03;3.25;;;19.60;56.50;;;;;;5063857;28;20218;-88
2023/07/23 06:21:57;;;;;;;3.83;3.33;;;19.60;56.60;;;;;;5067248;28;20197;-87
2023/07/23 06:24:24;;;;;;;5.05;3.15;;;19.60;56.90;;;;;;5067192;28;20285;-89
2023/07/23 06:26:50;;;;;;;3.45;2.92;;;19.70;55.60;;;;;;5049800;28;20194;-88
2023/07/23 06:29:17;;;;;;;4.28;3.00;;;19.90;52.20;;;;;;5067196;28;20600;-88
2023/07/23 06:31:45;;;;;;;3.28;2.78;;;19.90;52.30;;;;;;5071878;28;20202;-88
2023/07/23 06:34:12;;;;;;;3.42;2.95;;;20.00;52.30;;;;;;5069650;28;20201;-87
2023/07/23 06:36:39;;;;;;;3.78;3.30;;;20.10;49.50;;;;;;5069281;28;20738;-86
2023/07/23 06:39:06;;;;;;;3.97;3.40;;;20.10;49.20;;;;;;5037136;28;20289;-88
2023/07/23 06:41:33;;;;;;;4.68;3.10;;;20.20;50.60;;;;;;5066335;28;20205;-88
2023/07/23 06:44:00;;;;;;;3.95;3.17;;;20.30;48.20;;;;;;5058140;28;20244;-87
2023/07/23 06:46:26;;;;;;;4.53;3.08;;;20.50;45.50;;;;;;5059347;28;20572;-88
2023/07/23 06:48:55;;;;;;;4.50;3.47;;;20.60;44.60;;;;;;5047468;28;20202;-86
2023/07/23 06:51:22;;;;;;;3.70;3.30;;;20.80;43.00;;;;;;5065861;28;20254;-87
2023/07/23 06:53:49;;;;;;;3.60;3.30;;;20.90;38.10;;;;;;5058806;28;20549;-87
2023/07/23 06:56:17;;;;;;;4.60;3.08;;;21.10;33.30;;;;;;5043713;28;20259;-88
2023/07/23 06:58:47;;;;;;;7.55;3.83;;;21.40;33.20;;;;;;5065012;28;20243;-89
2023/07/23 07:01:14;;;;;;;4.05;3.28;;;21.60;32.50;;;;;;5064510;28;20204;-88
2023/07/23 07:03:41;;;;;;;3.58;2.78;;;21.80;33.80;;;;;;5049487;28;20200;-88
2023/07/23 07:06:09;;;;;;;3.67;2.90;;;21.90;27.10;;;;;;5060982;28;20315;-89
2023/07/23 07:08:36;;;;;;;5.82;3.38;;;21.90;27.00;;;;;;5047749;28;20206;-87
2023/07/23 07:11:09;;;;;;;5.60;2.85;;;21.90;26.70;;;;;;5065613;28;20204;-88
2023/07/23 07:13:37;;;;;;;4.28;3.30;;;21.90;26.60;;;;;;5033836;28;20220;-88
2023/07/23 07:16:04;;;;;;;3.40;3.10;;;22.00;26.40;;;;;;5056599;28;20220;-87
2023/07/23 07:18:31;;;;;;;3.67;3.13;;;22.10;26.70;;;;;;5067305;28;20209;-88
2023/07/23 07:21:00;;;;;;;5.53;2.83;;;22.20;26.30;;;;;;5034544;28;20244;-88
2023/07/23 07:23:29;;;;;;;5.93;3.40;;;22.20;25.20;;;;;;5064023;28;20209;-88
2023/07/23 07:25:56;;;;;;;4.72;2.90;;;22.40;26.40;;;;;;5069427;28;20228;-87
2023/07/23 07:28:24;;;;;;;3.60;3.30;;;22.40;25.80;;;;;;5063525;28;20209;-89
2023/07/23 07:30:51;;;;;;;3.30;2.67;;;22.40;25.40;;;;;;5063558;28;20209;-86
2023/07/23 07:33:18;;;;;;;4.30;3.35;;;22.40;24.80;;;;;;5064308;28;20276;-89
2023/07/23 07:35:45;;;;;;;3.38;2.97;;;22.50;24.00;;;;;;5052053;28;20240;-86
2023/07/23 07:38:12;;;;;;;4.40;2.70;;;22.60;24.70;;;;;;5063803;28;20254;-88
2023/07/23 07:40:41;;;;;;;3.83;3.10;;;22.70;22.50;;;;;;5061087;28;20205;-88
2023/07/23 07:43:08;;;;;;;3.25;2.95;;;22.80;22.60;;;;;;5065655;28;20197;-89
2023/07/23 07:45:34;;;;;;;4.10;3.08;;;22.70;21.10;;;;;;5062890;28;20225;-90
2023/07/23 07:48:01;;;;;;;3.95;2.70;;;22.80;21.20;;;;;;5069416;28;20213;-88
2023/07/23 07:50:28;;;;;;;3.38;3.00;;;23.00;22.80;;;;;;5064718;28;20201;-90
2023/07/23 07:52:55;;;;;;;3.40;3.08;;;23.10;20.10;;;;;;5048883;28;20645;-88
2023/07/23 07:55:22;;;;;;;3.60;2.85;;;23.20;19.70;;;;;;5059349;28;20193;-88
2023/07/23 07:57:51;;;;;;;3.40;2.90;;;23.30;18.70;;;;;;5063066;28;20205;-89
2023/07/23 08:00:20;;;;;;;3.88;3.58;;;23.40;17.50;;;;;;5054239;28;20221;-88
2023/07/23 08:02:47;;;;;;;3.17;2.80;;;23.60;18.40;;;;;;5065270;28;20197;-88
2023/07/23 08:05:15;;;;;;;3.00;2.75;;;23.70;18.10;;;;;;5066605;28;20221;-89
2023/07/23 08:07:43;;;;;;;3.67;2.83;;;23.90;18.30;;;;;;5062406;28;20209;-90
2023/07/23 08:10:11;;;;;;;3.40;2.83;;;24.00;16.90;;;;;;5064445;28;20198;-91
2023/07/23 08:12:40;;;;;;;3.40;3.10;;;24.10;16.80;;;;;;5052815;28;20197;-90
2023/07/23 08:15:12;;;;;;;3.60;3.28;;;24.20;16.30;;;;;;5063742;28;20450;-92
2023/07/23 08:17:40;;;;;;;3.95;2.90;;;24.40;16.00;;;;;;5047961;28;20733;-88
2023/07/23 08:20:08;;;;;;;2.95;2.65;;;24.50;15.80;;;;;;5065539;28;20198;-91
2023/07/23 08:22:35;;;;;;;4.68;2.88;;;24.50;13.90;;;;;;5073249;28;20196;-91
2023/07/23 08:27:47;;;;;;;4.63;3.05;;;24.70;13.00;;;;;;5069779;28;20198;-90
2023/07/23 08:32:59;;;;;;;2.97;2.67;;;24.90;11.60;;;;;;5064454;28;20190;-88
2023/07/23 08:35:28;;;;;;;2.95;2.70;;;25.40;10.90;;;;;;5067812;28;20228;-87
2023/07/23 08:37:55;;;;;;;6.20;2.90;;;26.40;10.20;;;;;;5066866;28;20201;-87
2023/07/23 08:40:27;;;;;;;3.88;2.92;;;28.20;8.20;;;;;;5061893;28;20212;-88
2023/07/23 08:43:33;;;;;;;5.25;3.00;;;29.80;5.30;;;;;;5049856;28;20251;-87
2023/07/23 08:46:24;;;;;;;4.80;2.72;;;30.30;3.80;;;;;;5054335;28;20221;-87
2023/07/23 08:49:05;;;;;;;3.30;2.90;;;30.70;3.50;;;;;;5058041;28;20428;-88
2023/07/23 08:51:35;;;;;;;3.20;3.00;;;30.90;3.50;;;;;;5057863;28;20234;-87
2023/07/23 08:54:04;;;;;;;4.38;3.03;;;31.50;3.00;;;;;;5060836;28;20197;-88
2023/07/23 08:56:31;;;;;;;3.67;3.30;;;31.90;2.40;;;;;;5055404;28;20688;-90
2023/07/23 08:59:01;;;;;;;3.55;3.30;;;32.00;1.30;;;;;;5055528;28;20296;-88
2023/07/23 09:01:32;;;;;;;3.75;3.45;;;32.10;1.60;;;;;;5065691;28;21239;-90
2023/07/23 09:04:19;;;;;;;5.03;3.53;;;32.70;2.60;;;;;;5060621;28;20259;-86
2023/07/23 09:06:46;;;;;;;4.00;3.70;;;33.40;1.00;;;;;;5058713;28;20201;-88
2023/07/23 09:09:14;;;;;;;3.58;3.28;;;33.10;1.00;;;;;;5058415;28;20201;-87
2023/07/23 09:11:41;;;;;;;3.78;3.42;;;32.80;1.50;;;;;;5056214;28;20200;-88
2023/07/23 09:14:08;;;;;;;3.72;3.40;;;32.60;1.00;;;;;;5064392;28;20196;-92
2023/07/23 09:16:38;;;;;;;4.90;3.63;;;32.80;1.50;;;;;;5062320;28;20205;-90
2023/07/23 09:21:58;;;;;;;4.30;4.00;;;34.20;1.00;;;;;;5062821;28;20201;-88
2023/07/23 09:30:07;;;;;;;14.43;13.18;;;33.80;1.00;;;;;;5048851;28;20200;-88
2023/07/23 09:32:44;;;;;;;5.18;4.68;;;34.20;1.00;;;;;;5039744;28;20563;-87
2023/07/23 09:35:11;;;;;;;4.80;4.40;;;34.30;1.00;;;;;;5068193;28;20203;-90
2023/07/23 09:41:11;;;;;;;4.90;4.50;;;33.80;1.00;;;;;;5240115;23;20233;-91
2023/07/23 09:43:50;;;;;;;5.07;4.65;;;34.70;1.00;;;;;;5045069;28;20198;-95
2023/07/23 09:46:27;;;;;;;5.43;4.63;;;34.60;1.00;;;;;;5060747;22;20245;-92
2023/07/23 09:49:11;;;;;;;6.13;4.47;;;35.70;1.00;;;;;;5068264;22;20242;-92
2023/07/23 09:54:40;;;;;;;4.55;4.20;;;33.60;1.00;;;;;;5046993;28;20285;-93
2023/07/23 09:57:08;;;;;;;4.25;3.95;;;32.90;1.00;;;;;;5058165;28;20204;-91
2023/07/23 09:59:45;;;;;;;4.43;4.13;;;31.80;1.00;;;;;;5043029;28;20584;-93
2023/07/23 10:05:00;;;;;;;4.53;4.22;;;31.60;1.20;;;;;;5037626;28;20562;-91
2023/07/23 10:27:19;;;;;;;4.75;4.35;;;30.30;3.90;;;;;;5031496;28;20209;-91
2023/07/23 10:30:17;;;;;;;5.72;5.13;;;30.80;2.20;;;;;;5048654;28;20201;-90
2023/07/23 10:38:47;;;;;;;5.65;5.15;;;30.20;3.10;;;;;;4956898;28;20210;-91
2023/07/23 10:47:32;;;;;;;5.20;4.70;;;31.30;1.50;;;;;;5049942;28;20276;-94
2023/07/23 10:50:13;;;;;;;5.30;4.80;;;31.90;2.80;;;;;;5038142;28;20209;-89
2023/07/23 10:52:40;;;;;;;9.32;8.27;;;31.80;1.40;;;;;;5046010;28;20569;-88
2023/07/23 10:57:54;;;;;;;6.68;6.07;;;31.80;2.40;;;;;;5050741;28;20211;-90
2023/07/23 11:03:03;;;;;;;6.40;5.80;;;32.50;1.00;;;;;;5047469;28;20228;-92
2023/07/23 11:05:43;;;;;;;6.57;5.97;;;32.60;1.00;;;;;;5034005;28;20272;-91
2023/07/23 11:08:16;;;;;;;7.18;6.47;;;32.70;1.00;;;;;;5048759;28;20193;-91
2023/07/23 11:10:53;;;;;;;6.68;6.03;;;33.10;1.00;;;;;;5056161;28;20198;-89
2023/07/23 11:13:22;;;;;;;6.93;6.18;;;32.70;3.00;;;;;;5045869;28;20665;-90
2023/07/23 11:15:49;;;;;;;6.57;5.97;;;32.30;1.00;;;;;;5049547;28;20792;-90
2023/07/23 11:21:17;;;;;;;7.03;6.05;;;31.90;1.70;;;;;;5033173;28;20208;-89
2023/07/23 11:26:26;;;;;;;8.10;7.35;;;31.50;1.20;;;;;;5045683;28;20581;-89
2023/07/23 11:28:53;;;;;;;5.88;5.35;;;31.50;3.00;;;;;;5046375;28;20657;-92
2023/07/23 11:34:03;;;;;;;7.95;6.03;;;31.10;3.60;;;;;;5049872;28;21739;-89
2023/07/23 11:39:11;;;;;;;7.60;6.80;;;30.50;3.40;;;;;;5054602;28;20206;-89
2023/07/23 11:44:24;;;;;;;8.15;7.35;;;30.10;4.70;;;;;;5037052;28;20200;-89
2023/07/23 11:46:59;;;;;;;8.57;6.38;;;30.00;3.60;;;;;;5043336;28;20225;-90
2023/07/23 11:49:26;;;;;;;6.03;5.43;;;30.00;3.00;;;;;;5050148;28;20211;-89
2023/07/23 11:51:53;;;;;;;6.43;5.82;;;30.10;3.30;;;;;;5027218;28;20206;-85
2023/07/23 11:54:20;;;;;;;7.22;6.38;;;30.20;3.60;;;;;;5049896;28;20202;-87
2023/07/23 11:56:48;;;;;;;8.05;6.00;;;30.60;1.30;;;;;;5037065;28;20209;-85
2023/07/23 11:59:17;;;;;;;7.88;6.38;;;30.80;4.50;;;;;;5044349;28;20678;-89
2023/07/23 12:01:45;;;;;;;6.63;5.90;;;31.00;4.90;;;;;;5040687;28;20247;-88
2023/07/23 12:04:12;;;;;;;7.00;6.25;;;31.10;3.00;;;;;;5045014;28;20190;-91
2023/07/23 12:06:41;;;;;;;6.85;6.07;;;31.10;2.30;;;;;;5044815;28;20253;-87
2023/07/23 12:09:09;;;;;;;7.28;6.45;;;30.90;2.30;;;;;;5040147;28;20288;-88
2023/07/23 12:11:39;;;;;;;7.95;6.85;;;30.40;2.50;;;;;;5053313;28;20196;-89
2023/07/23 12:16:49;;;;;;;7.53;6.60;;;30.10;3.80;;;;;;5041692;28;20676;-92
2023/07/23 12:19:18;;;;;;;10.52;7.13;;;30.20;3.90;;;;;;5058657;28;20633;-92
2023/07/23 12:21:46;;;;;;;10.55;6.40;;;30.30;3.50;;;;;;5067826;28;20216;-91
2023/07/23 12:24:19;;;;;;;7.90;5.97;;;30.40;3.30;;;;;;5044138;28;20255;-89
2023/07/23 12:26:46;;;;;;;7.47;6.78;;;30.60;3.70;;;;;;5061720;28;20228;-92
2023/07/23 12:29:16;;;;;;;8.95;6.57;;;30.70;2.80;;;;;;5067690;28;20200;-91
2023/07/23 12:31:44;;;;;;;11.75;7.45;;;30.70;2.70;;;;;;5067059;28;20199;-92
2023/07/23 12:34:11;;;;;;;8.98;7.32;;;30.50;4.70;;;;;;5043971;28;20199;-90
2023/07/23 12:36:39;;;;;;;11.52;6.85;;;30.20;2.20;;;;;;5054195;28;20204;-88
2023/07/23 12:39:06;;;;;;;7.25;6.55;;;30.20;3.30;;;;;;5050024;28;20193;-86
2023/07/23 12:41:34;;;;;;;7.47;6.60;;;30.50;4.90;;;;;;5063576;28;20205;-85
2023/07/23 12:44:02;;;;;;;7.25;6.53;;;30.50;3.00;;;;;;5069206;28;20223;-87
2023/07/23 12:46:33;;;;;;;7.65;6.85;;;30.50;3.10;;;;;;5066111;28;20216;-91
2023/07/23 12:49:00;;;;;;;7.60;6.68;;;30.30;3.50;;;;;;5050029;28;20278;-89
2023/07/23 12:51:27;;;;;;;12.50;6.82;;;30.40;3.90;;;;;;5046519;28;20224;-89
2023/07/23 12:53:54;;;;;;;7.75;6.60;;;30.50;4.30;;;;;;5066717;28;20193;-89
2023/07/23 12:56:21;;;;;;;7.57;6.78;;;30.70;3.20;;;;;;5048580;28;20281;-90
2023/07/23 12:58:48;;;;;;;7.68;6.45;;;30.70;3.00;;;;;;5069240;28;20205;-90
2023/07/23 13:01:15;;;;;;;7.28;6.57;;;30.60;3.40;;;;;;5067022;28;20711;-90
2023/07/23 13:03:44;;;;;;;7.05;6.03;;;30.80;3.40;;;;;;5060188;28;20205;-91
2023/07/23 13:06:11;;;;;;;9.15;6.88;;;30.90;3.40;;;;;;5051843;28;20224;-91
2023/07/23 13:08:38;;;;;;;9.95;7.30;;;30.80;2.50;;;;;;5047581;28;20201;-89
2023/07/23 13:11:05;;;;;;;10.13;6.50;;;30.80;2.50;;;;;;5065264;28;20620;-91
2023/07/23 13:13:32;;;;;;;8.63;7.05;;;30.50;4.10;;;;;;5050685;28;20201;-88
2023/07/23 13:15:58;;;;;;;8.60;6.65;;;30.20;3.60;;;;;;5060104;28;20197;-91
2023/07/23 13:19:02;;;;;;;8.57;6.57;;;30.10;5.10;;;;;;5075825;28;20237;-92
2023/07/23 13:21:29;;;;;;;10.00;6.53;;;29.90;5.40;;;;;;5055000;28;20204;-91
2023/07/23 13:23:56;;;;;;;10.15;9.18;;;29.90;5.50;;;;;;5083810;28;20256;-91
2023/07/23 13:26:23;;;;;;;9.50;7.53;;;30.00;5.10;;;;;;5080418;28;20235;-92
2023/07/23 13:31:31;;;;;;;8.27;7.03;;;30.40;4.30;;;;;;5069816;28;20235;-92
2023/07/23 13:33:58;;;;;;;8.25;6.03;;;30.20;3.30;;;;;;5077314;28;20193;-90
2023/07/23 13:36:28;;;;;;;7.97;6.57;;;30.20;4.60;;;;;;5028143;28;20709;-92
2023/07/23 13:39:05;;;;;;;8.15;6.90;;;30.30;4.60;;;;;;5020583;28;20216;-93
2023/07/23 13:41:32;;;;;;;7.93;6.30;;;30.40;4.50;;;;;;5083998;28;20191;-91
2023/07/23 13:43:59;;;;;;;7.40;6.28;;;30.30;4.40;;;;;;5057435;28;20197;-91
2023/07/23 13:46:27;;;;;;;8.60;6.03;;;30.10;4.10;;;;;;5072071;28;20224;-92
2023/07/23 13:48:55;;;;;;;9.57;6.40;;;30.20;4.30;;;;;;5050782;28;20217;-90
2023/07/23 13:51:22;;;;;;;7.95;6.63;;;30.20;4.90;;;;;;5050740;28;20208;-90
2023/07/23 13:56:31;;;;;;;7.43;5.97;;;30.10;5.40;;;;;;5055179;28;20219;-91
2023/07/23 13:58:58;;;;;;;9.32;6.30;;;30.00;5.20;;;;;;5073349;28;20199;-91
2023/07/23 14:01:25;;;;;;;7.68;6.85;;;29.80;5.70;;;;;;5060883;28;20187;-88
2023/07/23 14:03:52;;;;;;;13.23;7.82;;;29.60;4.90;;;;;;5059795;28;20207;-89
2023/07/23 14:06:21;;;;;;;8.75;6.93;;;29.40;6.70;;;;;;5065984;28;20224;-89
2023/07/23 14:08:50;;;;;;;10.95;6.35;;;29.20;6.60;;;;;;5069261;28;20197;-89
2023/07/23 14:11:16;;;;;;;8.00;6.55;;;29.20;5.90;;;;;;5073491;28;20193;-90
2023/07/23 14:13:43;;;;;;;7.47;6.35;;;29.00;6.50;;;;;;5042992;28;20774;-91
2023/07/23 14:16:10;;;;;;;10.48;7.38;;;28.70;6.40;;;;;;5057969;28;20624;-87
2023/07/23 14:18:37;;;;;;;9.40;6.60;;;28.60;7.40;;;;;;5064710;28;21198;-92